createdAt,value
2018-03-25T00:01:36.803Z,21.43
2018-03-25T00:04:04.242Z,22.83
2018-03-25T00:06:31.690Z,22.70
2018-03-25T00:08:59.931Z,22.10
2018-03-25T00:11:27.389Z,21.07
2018-03-25T00:13:54.844Z,23.70
2018-03-25T00:16:22.296Z,21.90
2018-03-25T00:18:49.750Z,20.77
2018-03-25T00:21:17.205Z,20.87
2018-03-25T00:23:44.660Z,21.60
2018-03-25T00:26:12.125Z,20.87
2018-03-25T00:28:39.585Z,20.43
2018-03-25T00:31:07.037Z,22.37
2018-03-25T00:33:34.498Z,22.37
2018-03-25T00:36:01.945Z,22.80
2018-03-25T00:38:29.400Z,22.47
2018-03-25T00:40:56.850Z,22.20
2018-03-25T00:43:24.308Z,21.50
2018-03-25T00:45:51.839Z,22.50
2018-03-25T00:48:19.285Z,22.80
2018-03-25T00:50:46.749Z,24.97
2018-03-25T00:53:14.212Z,24.50
2018-03-25T00:55:41.766Z,23.47
2018-03-25T00:58:09.232Z,22.47
2018-03-25T01:00:36.676Z,24.87
2018-03-25T01:03:04.130Z,23.10
2018-03-25T01:05:31.582Z,21.50
2018-03-25T01:07:59.041Z,21.00
2018-03-25T01:10:26.608Z,23.03
2018-03-25T01:12:54.057Z,25.17
2018-03-25T01:15:21.536Z,23.77
2018-03-25T01:17:48.988Z,21.17
2018-03-25T01:20:16.475Z,21.80
2018-03-25T01:22:44.685Z,24.00
2018-03-25T01:25:12.906Z,23.10
2018-03-25T01:27:40.365Z,23.40
2018-03-25T01:30:07.821Z,22.90
2018-03-25T01:32:36.116Z,23.00
2018-03-25T01:35:03.529Z,21.20
2018-03-25T01:37:30.989Z,23.10
2018-03-25T01:39:58.438Z,22.43
2018-03-25T01:42:25.896Z,22.30
2018-03-25T01:44:53.353Z,21.83
2018-03-25T01:47:20.809Z,23.53
2018-03-25T01:49:48.270Z,21.47
2018-03-25T01:52:15.728Z,21.00
2018-03-25T01:54:43.181Z,22.07
2018-03-25T01:57:10.636Z,22.97
2018-03-25T01:59:38.098Z,22.50
2018-03-25T02:02:05.553Z,21.87
2018-03-25T02:04:33.027Z,22.67
2018-03-25T02:07:00.473Z,22.17
2018-03-25T02:09:27.945Z,24.57
2018-03-25T02:11:55.575Z,22.40
2018-03-25T02:14:23.032Z,23.40
2018-03-25T02:16:50.482Z,22.77
2018-03-25T02:19:18.049Z,22.77
2018-03-25T02:21:45.485Z,22.43
2018-03-25T02:24:12.941Z,21.70
2018-03-25T02:26:40.394Z,24.17
2018-03-25T02:29:08.626Z,24.87
2018-03-25T02:31:36.078Z,21.47
2018-03-25T02:34:03.538Z,23.10
2018-03-25T02:36:31.007Z,21.73
2018-03-25T02:38:58.473Z,22.70
2018-03-25T02:41:25.921Z,24.80
2018-03-25T02:43:53.378Z,22.80
2018-03-25T02:46:20.842Z,23.70
2018-03-25T02:48:48.310Z,23.17
2018-03-25T02:51:16.523Z,24.40
2018-03-25T02:53:43.985Z,24.13
2018-03-25T02:56:11.434Z,24.30
2018-03-25T02:58:38.894Z,23.90
2018-03-25T03:01:06.344Z,24.17
2018-03-25T03:03:33.828Z,23.80
2018-03-25T03:06:01.278Z,23.70
2018-03-25T03:08:28.737Z,24.40
2018-03-25T03:10:56.200Z,26.37
2018-03-25T03:13:23.649Z,24.10
2018-03-25T03:15:51.104Z,25.90
2018-03-25T03:18:18.561Z,24.20
2018-03-25T03:20:46.026Z,25.27
2018-03-25T03:23:13.474Z,26.80
2018-03-25T03:25:40.937Z,23.13
2018-03-25T03:28:08.393Z,23.60
2018-03-25T03:30:35.849Z,25.13
2018-03-25T03:33:04.066Z,23.90
2018-03-25T03:35:32.297Z,21.80
2018-03-25T03:37:59.753Z,22.90
2018-03-25T03:40:27.221Z,26.13
2018-03-25T03:42:54.673Z,24.60
2018-03-25T03:45:22.136Z,24.63
2018-03-25T03:47:49.586Z,24.77
2018-03-25T03:50:17.809Z,24.07
2018-03-25T03:52:45.261Z,22.80
2018-03-25T03:55:13.490Z,26.40
2018-03-25T03:57:41.507Z,23.90
2018-03-25T04:00:09.730Z,25.23
2018-03-25T04:02:37.191Z,23.80
2018-03-25T04:05:04.649Z,23.27
2018-03-25T04:07:32.104Z,24.13
2018-03-25T04:09:59.566Z,24.77
2018-03-25T04:12:27.018Z,23.97
2018-03-25T04:14:54.491Z,24.83
2018-03-25T04:17:21.998Z,24.73
2018-03-25T04:19:49.462Z,24.10
2018-03-25T04:22:17.014Z,25.87
2018-03-25T04:24:44.483Z,26.10
2018-03-25T04:27:11.929Z,25.67
2018-03-25T04:29:39.394Z,27.00
2018-03-25T04:32:06.844Z,26.33
2018-03-25T04:34:34.305Z,25.73
2018-03-25T04:37:01.856Z,25.53
2018-03-25T04:39:29.314Z,24.97
2018-03-25T04:41:56.769Z,24.80
2018-03-25T04:44:24.231Z,23.80
2018-03-25T04:46:51.678Z,24.07
2018-03-25T04:49:19.140Z,25.33
2018-03-25T04:51:46.593Z,24.47
2018-03-25T04:54:14.049Z,24.03
2018-03-25T04:56:41.505Z,27.87
2018-03-25T04:59:08.965Z,25.17
2018-03-25T05:01:36.425Z,26.00
2018-03-25T05:04:03.877Z,25.80
2018-03-25T05:06:31.351Z,24.40
2018-03-25T05:08:58.801Z,26.70
2018-03-25T05:11:26.263Z,29.50
2018-03-25T05:13:53.731Z,26.50
2018-03-25T05:16:21.190Z,27.63
2018-03-25T05:18:48.647Z,26.27
2018-03-25T05:21:16.097Z,27.10
2018-03-25T05:23:43.545Z,28.03
2018-03-25T05:26:11.007Z,27.20
2018-03-25T05:28:38.457Z,29.60
2018-03-25T05:31:05.914Z,26.63
2018-03-25T05:33:33.368Z,26.47
2018-03-25T05:36:00.829Z,28.37
2018-03-25T05:38:28.277Z,25.23
2018-03-25T05:40:55.750Z,26.20
2018-03-25T05:43:23.197Z,27.67
2018-03-25T05:45:50.661Z,28.70
2018-03-25T05:48:18.111Z,26.70
2018-03-25T05:50:45.569Z,25.50
2018-03-25T05:53:13.018Z,26.30
2018-03-25T05:55:40.473Z,27.03
2018-03-25T05:58:07.940Z,26.07
2018-03-25T06:00:35.397Z,26.37
2018-03-25T06:03:02.841Z,26.10
2018-03-25T06:05:30.309Z,27.80
2018-03-25T06:07:57.758Z,26.37
2018-03-25T06:10:25.213Z,28.17
2018-03-25T06:12:52.673Z,27.13
2018-03-25T06:15:20.898Z,26.07
2018-03-25T06:17:55.023Z,27.33
2018-03-25T06:20:22.485Z,26.60
2018-03-25T06:22:49.944Z,26.90
2018-03-25T06:25:17.406Z,27.20
2018-03-25T06:27:44.856Z,27.20
2018-03-25T06:30:12.427Z,28.13
2018-03-25T06:32:39.864Z,27.20
2018-03-25T06:35:07.351Z,28.17
2018-03-25T06:37:34.805Z,27.63
2018-03-25T06:40:02.265Z,27.43
2018-03-25T06:42:29.725Z,27.63
2018-03-25T06:44:57.173Z,26.97
2018-03-25T06:47:24.635Z,28.70
2018-03-25T06:49:52.086Z,28.93
2018-03-25T06:52:19.569Z,29.83
2018-03-25T06:54:47.009Z,28.47
2018-03-25T06:57:15.241Z,28.63
2018-03-25T06:59:43.469Z,30.57
2018-03-25T07:02:10.925Z,28.13
2018-03-25T07:04:38.389Z,29.27
2018-03-25T07:07:05.846Z,28.80
2018-03-25T07:09:33.297Z,26.23
2018-03-25T07:12:00.753Z,29.70
2018-03-25T07:14:28.280Z,26.90
2018-03-25T07:16:56.450Z,29.10
2018-03-25T07:19:23.906Z,28.50
2018-03-25T07:21:51.363Z,26.43
2018-03-25T07:24:18.826Z,28.20
2018-03-25T07:26:46.328Z,27.63
2018-03-25T07:29:13.789Z,30.17
2018-03-25T07:31:41.245Z,28.77
2018-03-25T07:34:08.714Z,28.10
2018-03-25T07:36:36.949Z,29.40
2018-03-25T07:39:04.398Z,29.43
2018-03-25T07:41:31.901Z,30.47
2018-03-25T07:43:59.346Z,29.17
2018-03-25T07:46:26.819Z,30.87
2018-03-25T07:48:55.039Z,28.23
2018-03-25T07:51:22.501Z,29.40
2018-03-25T07:53:49.946Z,28.40
2018-03-25T07:56:17.406Z,28.37
2018-03-25T07:58:44.856Z,30.07
2018-03-25T08:01:12.316Z,29.50
2018-03-25T08:03:39.769Z,28.43
2018-03-25T08:06:07.502Z,29.17
2018-03-25T08:08:35.734Z,29.17
2018-03-25T08:11:03.189Z,29.03
2018-03-25T08:13:30.662Z,29.03
2018-03-25T08:15:58.108Z,28.03
2018-03-25T08:18:25.566Z,30.87
2018-03-25T08:20:53.024Z,32.27
2018-03-25T08:23:20.481Z,28.30
2018-03-25T08:25:47.929Z,29.33
2018-03-25T08:28:15.433Z,28.10
2018-03-25T08:30:42.883Z,29.97
2018-03-25T08:33:11.110Z,29.97
2018-03-25T08:35:38.566Z,29.40
2018-03-25T08:38:06.048Z,27.40
2018-03-25T08:40:33.501Z,28.43
2018-03-25T08:43:00.953Z,27.10
2018-03-25T08:45:28.422Z,26.40
2018-03-25T08:47:55.898Z,28.43
2018-03-25T08:50:23.363Z,26.90
2018-03-25T08:52:50.820Z,26.60
2018-03-25T08:55:18.270Z,27.30
2018-03-25T08:57:45.738Z,28.07
2018-03-25T09:00:13.212Z,29.13
2018-03-25T09:02:40.703Z,27.07
2018-03-25T09:05:08.170Z,29.40
2018-03-25T09:07:35.638Z,29.77
2018-03-25T09:10:03.101Z,28.60
2018-03-25T09:12:30.560Z,26.90
2018-03-25T09:14:58.018Z,28.83
2018-03-25T09:17:26.250Z,29.60
2018-03-25T09:19:53.709Z,41.93
2018-03-25T09:22:21.173Z,37.80
2018-03-25T09:24:48.634Z,29.90
2018-03-25T09:27:16.097Z,30.23
2018-03-25T09:29:43.568Z,26.20
2018-03-25T09:32:11.818Z,23.60
2018-03-25T09:34:39.279Z,24.70
2018-03-25T09:37:06.757Z,25.10
2018-03-25T09:39:34.209Z,23.80
2018-03-25T09:42:02.438Z,23.07
2018-03-25T09:44:29.905Z,22.97
2018-03-25T09:46:57.438Z,23.43
2018-03-25T09:49:24.894Z,21.43
2018-03-25T09:51:52.357Z,24.03
2018-03-25T09:54:19.828Z,21.60
2018-03-25T09:56:47.322Z,23.23
2018-03-25T09:59:14.756Z,23.33
2018-03-25T10:01:47.958Z,21.87
2018-03-25T10:04:15.436Z,22.87
2018-03-25T10:06:43.660Z,26.33
2018-03-25T10:09:11.122Z,23.40
2018-03-25T10:11:38.585Z,24.33
2018-03-25T10:14:06.058Z,23.43
2018-03-25T10:16:41.361Z,22.50
2018-03-25T10:19:09.273Z,21.43
2018-03-25T10:21:36.741Z,21.90
2018-03-25T10:24:04.216Z,24.50
2018-03-25T10:26:32.498Z,26.30
2018-03-25T10:28:59.961Z,29.30
2018-03-25T10:31:27.426Z,24.00
2018-03-25T10:33:54.904Z,22.13
2018-03-25T10:36:22.366Z,21.60
2018-03-25T10:38:49.855Z,22.70
2018-03-25T10:41:17.309Z,22.10
2018-03-25T10:43:44.777Z,22.67
2018-03-25T10:46:13.037Z,22.77
2018-03-25T10:48:40.511Z,24.63
2018-03-25T10:51:08.732Z,23.50
2018-03-25T10:53:36.205Z,24.20
2018-03-25T10:56:03.663Z,24.00
2018-03-25T10:58:31.130Z,23.10
2018-03-25T11:00:58.606Z,22.00
2018-03-25T11:03:26.846Z,22.93
2018-03-25T11:05:54.305Z,18.57
2018-03-25T11:08:21.781Z,21.60
2018-03-25T11:10:49.233Z,24.50
2018-03-25T11:13:16.715Z,23.67
2018-03-25T11:15:44.951Z,23.80
2018-03-25T11:18:12.418Z,22.77
2018-03-25T11:20:39.877Z,23.73
2018-03-25T11:23:07.344Z,25.07
2018-03-25T11:25:35.572Z,24.10
2018-03-25T11:28:03.042Z,25.27
2018-03-25T11:30:30.518Z,26.47
2018-03-25T11:32:57.978Z,23.20
2018-03-25T11:35:25.469Z,24.50
2018-03-25T11:37:52.946Z,23.40
2018-03-25T11:40:20.422Z,24.53
2018-03-25T11:42:47.889Z,25.13
2018-03-25T11:45:16.140Z,24.10
2018-03-25T11:47:43.607Z,23.60
2018-03-25T11:50:11.306Z,22.50
2018-03-25T11:52:39.206Z,23.50
2018-03-25T11:55:06.674Z,25.13
2018-03-25T11:57:34.130Z,23.93
2018-03-25T12:00:01.599Z,23.87
2018-03-25T12:02:29.066Z,23.20
2018-03-25T12:04:56.540Z,25.77
2018-03-25T12:07:23.993Z,24.43
2018-03-25T12:09:51.466Z,24.30
2018-03-25T12:12:18.926Z,24.13
2018-03-25T12:14:46.390Z,24.50
2018-03-25T12:17:14.618Z,26.20
2018-03-25T12:19:42.114Z,23.57
2018-03-25T12:22:09.574Z,25.10
2018-03-25T12:24:37.045Z,24.20
2018-03-25T12:27:05.261Z,22.87
2018-03-25T12:29:32.734Z,22.80
2018-03-25T12:32:00.196Z,24.77
2018-03-25T12:34:27.664Z,23.07
2018-03-25T12:36:55.128Z,23.80
2018-03-25T12:39:22.594Z,21.13
2018-03-25T12:41:50.824Z,19.30
2018-03-25T12:44:18.284Z,21.50
2018-03-25T12:46:45.737Z,20.30
2018-03-25T12:49:13.211Z,21.23
2018-03-25T12:51:40.662Z,20.23
2018-03-25T12:54:08.130Z,18.43
2018-03-25T12:56:35.597Z,17.30
2018-03-25T12:59:03.066Z,17.50
2018-03-25T13:01:31.291Z,18.70
2018-03-25T13:03:58.754Z,20.20
2018-03-25T13:06:26.217Z,20.30
2018-03-25T13:08:53.675Z,19.60
2018-03-25T13:11:21.146Z,18.27
2018-03-25T13:13:48.628Z,20.23
2018-03-25T13:16:16.093Z,20.87
2018-03-25T13:18:43.561Z,20.67
2018-03-25T13:21:11.038Z,21.40
2018-03-25T13:23:38.494Z,19.50
2018-03-25T13:26:05.960Z,17.90
2018-03-25T13:28:33.414Z,19.30
2018-03-25T13:31:00.889Z,20.70
2018-03-25T13:33:28.342Z,18.63
2018-03-25T13:35:55.806Z,18.73
2018-03-25T13:38:23.261Z,18.87
2018-03-25T13:40:50.731Z,18.43
2018-03-25T13:43:18.186Z,16.67
2018-03-25T13:45:45.678Z,18.40
2018-03-25T13:48:13.153Z,18.93
2018-03-25T13:50:40.634Z,19.33
2018-03-25T13:53:08.086Z,19.33
2018-03-25T13:55:35.553Z,18.83
2018-03-25T13:58:03.022Z,20.27
2018-03-25T14:00:30.493Z,20.67
2018-03-25T14:02:57.948Z,22.27
2018-03-25T14:05:25.429Z,20.37
2018-03-25T14:07:52.890Z,18.97
2018-03-25T14:10:20.352Z,19.80
2018-03-25T14:12:47.841Z,20.90
2018-03-25T14:15:15.310Z,20.70
2018-03-25T14:17:42.762Z,21.33
2018-03-25T14:20:10.243Z,22.03
2018-03-25T14:22:37.705Z,20.10
2018-03-25T14:25:05.938Z,20.13
2018-03-25T14:27:33.398Z,22.83
2018-03-25T14:30:01.700Z,21.73
2018-03-25T14:32:29.094Z,23.00
2018-03-25T14:34:56.557Z,23.33
2018-03-25T14:37:24.075Z,21.90
2018-03-25T14:39:51.504Z,23.30
2018-03-25T14:42:18.998Z,23.70
2018-03-25T14:44:46.426Z,22.77
2018-03-25T14:47:13.895Z,23.57
2018-03-25T14:49:41.362Z,24.67
2018-03-25T14:52:08.834Z,23.07
2018-03-25T14:54:37.050Z,23.10
2018-03-25T14:57:04.525Z,21.50
2018-03-25T14:59:31.990Z,22.10
2018-03-25T15:01:59.467Z,22.07
2018-03-25T15:04:26.917Z,20.60
2018-03-25T15:06:54.387Z,23.80
2018-03-25T15:09:22.627Z,21.50
2018-03-25T15:11:50.089Z,23.97
2018-03-25T15:14:17.545Z,23.80
2018-03-25T15:16:45.036Z,22.03
2018-03-25T15:19:13.274Z,21.90
2018-03-25T15:21:40.744Z,22.00
2018-03-25T15:24:08.199Z,21.30
2018-03-25T15:26:36.470Z,22.73
2018-03-25T15:29:03.918Z,23.00
2018-03-25T15:31:31.381Z,24.17
2018-03-25T15:33:58.843Z,21.97
2018-03-25T15:36:26.309Z,21.53
2018-03-25T15:38:53.769Z,20.80
2018-03-25T15:41:21.243Z,21.00
2018-03-25T15:43:49.470Z,25.20
2018-03-25T15:46:16.949Z,23.03
2018-03-25T15:48:44.398Z,22.67
2018-03-25T15:51:11.870Z,23.37
2018-03-25T15:53:40.114Z,21.47
2018-03-25T15:56:07.586Z,21.20
2018-03-25T15:58:35.041Z,21.70
2018-03-25T16:01:02.504Z,22.90
2018-03-25T16:03:29.966Z,22.47
2018-03-25T16:05:57.422Z,22.87
2018-03-25T16:08:24.978Z,22.47
2018-03-25T16:10:52.434Z,22.87
2018-03-25T16:13:19.898Z,21.23
2018-03-25T16:15:47.355Z,22.80
2018-03-25T16:18:14.828Z,24.27
2018-03-25T16:20:42.281Z,22.40
2018-03-25T16:23:09.876Z,24.33
2018-03-25T16:25:37.346Z,21.00
2018-03-25T16:28:04.814Z,21.13
2018-03-25T16:30:32.260Z,22.80
2018-03-25T16:32:59.740Z,21.20
2018-03-25T16:35:27.197Z,22.30
2018-03-25T16:37:54.657Z,19.83
2018-03-25T16:40:22.114Z,19.63
2018-03-25T16:42:49.590Z,20.13
2018-03-25T16:45:17.818Z,19.57
2018-03-25T16:47:45.310Z,20.87
2018-03-25T16:50:12.746Z,20.83
2018-03-25T16:52:40.231Z,19.63
2018-03-25T16:55:08.465Z,17.60
2018-03-25T16:57:35.937Z,18.80
2018-03-25T17:00:03.396Z,18.43
2018-03-25T17:02:30.865Z,20.40
2018-03-25T17:04:58.321Z,19.70
2018-03-25T17:07:25.801Z,18.60
2018-03-25T17:09:54.046Z,17.60
2018-03-25T17:12:21.517Z,16.63
2018-03-25T17:14:48.988Z,19.10
2018-03-25T17:17:17.237Z,17.13
2018-03-25T17:19:44.702Z,17.70
2018-03-25T17:22:12.177Z,18.00
2018-03-25T17:24:40.403Z,18.10
2018-03-25T17:27:07.925Z,16.17
2018-03-25T17:29:35.339Z,17.70
2018-03-25T17:32:02.807Z,18.80
2018-03-25T17:34:30.253Z,17.90
2018-03-25T17:36:57.718Z,21.60
2018-03-25T17:39:25.190Z,19.30
2018-03-25T17:41:53.461Z,17.40
2018-03-25T17:44:20.895Z,18.77
2018-03-25T17:46:48.355Z,19.90
2018-03-25T17:49:15.819Z,20.77
2018-03-25T17:51:43.289Z,19.83
2018-03-25T17:54:11.522Z,19.97
2018-03-25T17:56:39.742Z,20.00
2018-03-25T17:59:07.982Z,19.40
2018-03-25T18:01:35.442Z,20.00
2018-03-25T18:04:02.906Z,21.43
2018-03-25T18:06:30.368Z,20.23
2018-03-25T18:08:57.826Z,22.67
2018-03-25T18:11:25.285Z,20.40
2018-03-25T18:13:52.740Z,18.90
2018-03-25T18:16:20.969Z,20.30
2018-03-25T18:18:48.441Z,20.23
2018-03-25T18:21:15.905Z,19.77
2018-03-25T18:23:43.384Z,21.10
2018-03-25T18:26:10.887Z,20.47
2018-03-25T18:28:38.339Z,20.80
2018-03-25T18:31:05.795Z,19.87
2018-03-25T18:33:33.263Z,21.20
2018-03-25T18:36:00.739Z,21.90
2018-03-25T18:38:28.206Z,20.70
2018-03-25T18:40:55.666Z,22.90
2018-03-25T18:43:23.134Z,21.20
2018-03-25T18:45:50.602Z,21.97
2018-03-25T18:48:18.840Z,22.50
2018-03-25T18:50:46.304Z,20.93
2018-03-25T18:53:13.766Z,19.57
2018-03-25T18:55:41.221Z,20.13
2018-03-25T18:58:08.689Z,24.10
2018-03-25T19:00:36.141Z,22.83
2018-03-25T19:03:03.610Z,22.67
2018-03-25T19:05:31.060Z,21.63
2018-03-25T19:07:58.525Z,20.50
2018-03-25T19:10:26.750Z,20.23
2018-03-25T19:12:54.205Z,18.10
2018-03-25T19:15:21.680Z,15.70
2018-03-25T19:17:49.134Z,19.00
2018-03-25T19:20:16.605Z,17.80
2018-03-25T19:22:44.124Z,17.40
2018-03-25T19:25:11.730Z,17.90
2018-03-25T19:27:39.129Z,18.33
2018-03-25T19:30:06.598Z,18.20
2018-03-25T19:32:34.051Z,19.30
2018-03-25T19:35:01.529Z,18.37
2018-03-25T19:37:28.985Z,17.27
2018-03-25T19:39:56.450Z,15.77
2018-03-25T19:42:23.898Z,17.10
2018-03-25T19:44:51.361Z,18.63
2018-03-25T19:47:18.811Z,18.13
2018-03-25T19:49:46.350Z,16.90
2018-03-25T19:52:13.790Z,17.97
2018-03-25T19:54:42.105Z,16.23
2018-03-25T19:57:09.565Z,16.23
2018-03-25T19:59:37.030Z,15.47
2018-03-25T20:02:04.488Z,17.80
2018-03-25T20:04:31.977Z,15.50
2018-03-25T20:07:00.214Z,17.30
2018-03-25T20:09:27.661Z,17.57
2018-03-25T20:11:55.115Z,17.77
2018-03-25T20:14:22.604Z,17.47
2018-03-25T20:16:50.031Z,17.90
2018-03-25T20:19:17.491Z,17.53
2018-03-25T20:21:44.955Z,16.90
2018-03-25T20:24:12.414Z,16.10
2018-03-25T20:26:39.863Z,16.30
2018-03-25T20:29:07.321Z,18.70
2018-03-25T20:31:34.766Z,18.00
2018-03-25T20:34:02.230Z,19.17
2018-03-25T20:36:29.690Z,19.33
2018-03-25T20:38:57.172Z,20.10
2018-03-25T20:41:24.671Z,19.07
2018-03-25T20:43:52.131Z,21.03
2018-03-25T20:46:19.577Z,20.40
2018-03-25T20:48:47.034Z,21.27
2018-03-25T20:51:14.505Z,20.30
2018-03-25T20:53:41.982Z,21.93
2018-03-25T20:56:09.446Z,21.70
2018-03-25T20:58:36.898Z,21.87
2018-03-25T21:01:04.360Z,21.67
2018-03-25T21:03:31.922Z,21.53
2018-03-25T21:05:59.376Z,21.63
2018-03-25T21:08:27.590Z,20.70
2018-03-25T21:10:55.814Z,20.63
2018-03-25T21:13:23.268Z,22.53
2018-03-25T21:15:50.730Z,19.80
2018-03-25T21:18:18.190Z,20.77
2018-03-25T21:20:45.637Z,20.50
2018-03-25T21:23:13.092Z,19.70
2018-03-25T21:25:40.549Z,20.40
2018-03-25T21:28:07.997Z,21.00
2018-03-25T21:30:35.465Z,20.13
2018-03-25T21:33:02.904Z,20.80
2018-03-25T21:35:30.369Z,19.70
2018-03-25T21:37:57.821Z,21.57
2018-03-25T21:40:25.282Z,22.10
2018-03-25T21:42:53.498Z,20.93
2018-03-25T21:45:20.959Z,20.70
2018-03-25T21:47:48.404Z,20.67
2018-03-25T21:50:15.896Z,19.87
2018-03-25T21:52:43.349Z,21.17
2018-03-25T21:55:10.805Z,20.73
2018-03-25T21:57:38.262Z,21.13
2018-03-25T22:00:05.770Z,22.23
2018-03-25T22:02:33.213Z,21.47
2018-03-25T22:05:00.697Z,19.20
2018-03-25T22:07:28.181Z,21.40
2018-03-25T22:09:56.414Z,20.10
2018-03-25T22:12:23.869Z,19.93
2018-03-25T22:14:51.316Z,19.07
2018-03-25T22:17:18.780Z,21.17
2018-03-25T22:19:46.230Z,20.23
2018-03-25T22:22:13.695Z,20.10
2018-03-25T22:24:41.156Z,17.63
2018-03-25T22:27:08.608Z,20.03
2018-03-25T22:29:36.055Z,18.83
2018-03-25T22:32:03.513Z,19.50
2018-03-25T22:34:30.975Z,18.97
2018-03-25T22:36:58.433Z,18.03
2018-03-25T22:39:25.885Z,20.23
2018-03-25T22:41:53.403Z,18.67
2018-03-25T22:44:20.806Z,20.90
2018-03-25T22:46:48.261Z,16.90
2018-03-25T22:49:15.714Z,19.80
2018-03-25T22:51:43.187Z,18.77
2018-03-25T22:54:10.638Z,20.10
2018-03-25T22:56:38.109Z,19.50
2018-03-25T22:59:05.569Z,19.67
2018-03-25T23:01:33.796Z,20.30
2018-03-25T23:04:01.250Z,19.23
2018-03-25T23:06:28.710Z,20.93
2018-03-25T23:08:56.165Z,19.50
2018-03-25T23:11:23.626Z,21.27
2018-03-25T23:13:51.075Z,20.20
2018-03-25T23:16:18.529Z,20.57
2018-03-25T23:18:45.980Z,19.50
2018-03-25T23:21:13.438Z,19.57
2018-03-25T23:23:40.894Z,17.67
2018-03-25T23:26:08.354Z,20.10
2018-03-25T23:28:35.809Z,17.97
2018-03-25T23:31:03.269Z,17.83
2018-03-25T23:33:30.720Z,19.27
2018-03-25T23:35:58.183Z,19.90
2018-03-25T23:38:25.639Z,17.47
2018-03-25T23:40:53.097Z,17.50
2018-03-25T23:43:20.558Z,18.43
2018-03-25T23:45:48.005Z,18.77
2018-03-25T23:48:15.468Z,18.40
2018-03-25T23:50:43.018Z,18.73
2018-03-25T23:53:10.477Z,17.97
2018-03-25T23:55:37.936Z,18.70
2018-03-25T23:58:05.393Z,19.47
